sensor_id;sensor_type;location;lat;lon;timestamp;temperature;humidity
44487;DHT22;30191;50.908;6.962;2023-03-21T00:00:00;12.00;99.90
44487;DHT22;30191;50.908;6.962;2023-03-21T00:02:26;12.00;99.90
44487;DHT22;30191;50.908;6.962;2023-03-21T00:04:52;12.00;99.90
44487;DHT22;30191;50.908;6.962;2023-03-21T00:07:17;12.00;99.90
44487;DHT22;30191;50.908;6.962;2023-03-21T00:09:43;12.00;99.90
44487;DHT22;30191;50.908;6.962;2023-03-21T00:12:08;12.00;99.90
44487;DHT22;30191;50.908;6.962;2023-03-21T00:14:35;12.00;99.90
44487;DHT22;30191;50.908;6.962;2023-03-21T00:17:03;12.00;99.90
44487;DHT22;30191;50.908;6.962;2023-03-21T00:19:28;12.00;99.90
44487;DHT22;30191;50.908;6.962;2023-03-21T00:21:54;12.00;99.90
44487;DHT22;30191;50.908;6.962;2023-03-21T00:24:20;12.00;99.90
44487;DHT22;30191;50.908;6.962;2023-03-21T00:26:47;12.00;99.90
44487;DHT22;30191;50.908;6.962;2023-03-21T00:29:13;12.00;99.90
44487;DHT22;30191;50.908;6.962;2023-03-21T00:31:38;12.00;99.90
44487;DHT22;30191;50.908;6.962;2023-03-21T00:34:04;12.00;99.90
44487;DHT22;30191;50.908;6.962;2023-03-21T00:36:29;12.00;99.90
44487;DHT22;30191;50.908;6.962;2023-03-21T00:38:56;11.90;99.90
44487;DHT22;30191;50.908;6.962;2023-03-21T00:41:21;12.00;99.90
44487;DHT22;30191;50.908;6.962;2023-03-21T00:43:47;12.00;99.90
44487;DHT22;30191;50.908;6.962;2023-03-21T00:46:12;11.90;99.90
44487;DHT22;30191;50.908;6.962;2023-03-21T00:48:38;11.90;99.90
44487;DHT22;30191;50.908;6.962;2023-03-21T00:51:09;11.90;99.90
44487;DHT22;30191;50.908;6.962;2023-03-21T00:53:36;11.90;99.90
44487;DHT22;30191;50.908;6.962;2023-03-21T00:56:02;11.90;99.90
44487;DHT22;30191;50.908;6.962;2023-03-21T00:58:27;11.90;99.90
44487;DHT22;30191;50.908;6.962;2023-03-21T01:00:53;11.90;99.90
44487;DHT22;30191;50.908;6.962;2023-03-21T01:03:18;11.90;99.90
44487;DHT22;30191;50.908;6.962;2023-03-21T01:05:46;11.90;99.90
44487;DHT22;30191;50.908;6.962;2023-03-21T01:08:34;11.90;99.90
44487;DHT22;30191;50.908;6.962;2023-03-21T01:11:05;11.90;99.90
44487;DHT22;30191;50.908;6.962;2023-03-21T01:13:31;11.90;99.90
44487;DHT22;30191;50.908;6.962;2023-03-21T01:15:57;11.90;99.90
44487;DHT22;30191;50.908;6.962;2023-03-21T01:18:24;11.90;99.90
44487;DHT22;30191;50.908;6.962;2023-03-21T01:20:51;11.90;99.90
44487;DHT22;30191;50.908;6.962;2023-03-21T01:23:17;11.90;99.90
44487;DHT22;30191;50.908;6.962;2023-03-21T01:25:42;11.90;99.90
44487;DHT22;30191;50.908;6.962;2023-03-21T01:28:08;11.90;99.90
44487;DHT22;30191;50.908;6.962;2023-03-21T01:30:34;11.90;99.90
44487;DHT22;30191;50.908;6.962;2023-03-21T01:32:59;11.90;99.90
44487;DHT22;30191;50.908;6.962;2023-03-21T01:35:25;11.90;99.90
44487;DHT22;30191;50.908;6.962;2023-03-21T01:37:50;11.90;99.90
44487;DHT22;30191;50.908;6.962;2023-03-21T01:40:18;11.90;99.90
44487;DHT22;30191;50.908;6.962;2023-03-21T01:42:44;11.80;99.90
44487;DHT22;30191;50.908;6.962;2023-03-21T01:47:54;11.80;99.90
44487;DHT22;30191;50.908;6.962;2023-03-21T01:50:20;11.80;99.90
44487;DHT22;30191;50.908;6.962;2023-03-21T01:52:46;11.80;99.90
44487;DHT22;30191;50.908;6.962;2023-03-21T01:55:14;11.90;99.90
44487;DHT22;30191;50.908;6.962;2023-03-21T01:57:45;11.80;99.90
44487;DHT22;30191;50.908;6.962;2023-03-21T02:00:11;11.90;99.90
44487;DHT22;30191;50.908;6.962;2023-03-21T02:02:42;11.90;99.90
44487;DHT22;30191;50.908;6.962;2023-03-21T02:05:28;11.90;99.90
44487;DHT22;30191;50.908;6.962;2023-03-21T02:07:57;11.80;99.90
44487;DHT22;30191;50.908;6.962;2023-03-21T02:10:24;11.80;99.90
44487;DHT22;30191;50.908;6.962;2023-03-21T02:12:49;11.80;99.90
44487;DHT22;30191;50.908;6.962;2023-03-21T02:15:15;11.80;99.90
44487;DHT22;30191;50.908;6.962;2023-03-21T02:23:01;11.80;99.90
44487;DHT22;30191;50.908;6.962;2023-03-21T02:39:00;11.80;99.90
44487;DHT22;30191;50.908;6.962;2023-03-21T02:44:05;11.80;99.90
44487;DHT22;30191;50.908;6.962;2023-03-21T02:46:42;11.80;99.90
44487;DHT22;30191;50.908;6.962;2023-03-21T02:49:20;11.80;99.90
44487;DHT22;30191;50.908;6.962;2023-03-21T02:51:47;11.80;99.90
44487;DHT22;30191;50.908;6.962;2023-03-21T02:54:14;11.80;99.90
44487;DHT22;30191;50.908;6.962;2023-03-21T02:56:41;11.80;99.90
44487;DHT22;30191;50.908;6.962;2023-03-21T02:59:08;11.80;99.90
44487;DHT22;30191;50.908;6.962;2023-03-21T03:01:34;11.80;99.90
44487;DHT22;30191;50.908;6.962;2023-03-21T03:04:00;11.80;99.90
44487;DHT22;30191;50.908;6.962;2023-03-21T03:11:37;11.70;99.90
44487;DHT22;30191;50.908;6.962;2023-03-21T03:14:16;11.70;99.90
44487;DHT22;30191;50.908;6.962;2023-03-21T03:19:13;11.70;99.90
44487;DHT22;30191;50.908;6.962;2023-03-21T03:21:49;11.70;99.90
44487;DHT22;30191;50.908;6.962;2023-03-21T03:24:16;11.70;99.90
44487;DHT22;30191;50.908;6.962;2023-03-21T03:29:12;11.70;99.90
44487;DHT22;30191;50.908;6.962;2023-03-21T03:31:40;11.70;99.90
44487;DHT22;30191;50.908;6.962;2023-03-21T03:34:08;11.70;99.90
44487;DHT22;30191;50.908;6.962;2023-03-21T03:36:37;11.70;99.90
44487;DHT22;30191;50.908;6.962;2023-03-21T03:39:05;11.70;99.90
44487;DHT22;30191;50.908;6.962;2023-03-21T03:41:31;11.70;99.90
44487;DHT22;30191;50.908;6.962;2023-03-21T03:43:58;11.70;99.90
44487;DHT22;30191;50.908;6.962;2023-03-21T03:46:31;11.70;99.90
44487;DHT22;30191;50.908;6.962;2023-03-21T03:49:00;11.60;99.90
44487;DHT22;30191;50.908;6.962;2023-03-21T03:51:36;11.60;99.90
44487;DHT22;30191;50.908;6.962;2023-03-21T03:54:03;11.60;99.90
44487;DHT22;30191;50.908;6.962;2023-03-21T03:56:32;11.60;99.90
44487;DHT22;30191;50.908;6.962;2023-03-21T03:58:57;11.60;99.90
44487;DHT22;30191;50.908;6.962;2023-03-21T04:01:23;11.60;99.90
44487;DHT22;30191;50.908;6.962;2023-03-21T04:03:49;11.60;99.90
44487;DHT22;30191;50.908;6.962;2023-03-21T04:06:15;11.60;99.90
44487;DHT22;30191;50.908;6.962;2023-03-21T04:08:41;11.60;99.90
44487;DHT22;30191;50.908;6.962;2023-03-21T04:11:06;11.60;99.90
44487;DHT22;30191;50.908;6.962;2023-03-21T04:13:32;11.60;99.90
44487;DHT22;30191;50.908;6.962;2023-03-21T04:15:58;11.60;99.90
44487;DHT22;30191;50.908;6.962;2023-03-21T04:18:24;11.60;99.90
44487;DHT22;30191;50.908;6.962;2023-03-21T04:20:50;11.50;99.90
44487;DHT22;30191;50.908;6.962;2023-03-21T04:23:17;11.50;99.90
44487;DHT22;30191;50.908;6.962;2023-03-21T04:25:43;11.50;99.90
44487;DHT22;30191;50.908;6.962;2023-03-21T04:28:09;11.60;99.90
44487;DHT22;30191;50.908;6.962;2023-03-21T04:30:35;11.60;99.90
44487;DHT22;30191;50.908;6.962;2023-03-21T04:33:00;11.60;99.90
44487;DHT22;30191;50.908;6.962;2023-03-21T04:35:26;11.60;99.90
44487;DHT22;30191;50.908;6.962;2023-03-21T04:37:52;11.60;99.90
44487;DHT22;30191;50.908;6.962;2023-03-21T04:40:18;11.60;99.90
44487;DHT22;30191;50.908;6.962;2023-03-21T04:42:44;11.60;99.90
44487;DHT22;30191;50.908;6.962;2023-03-21T04:45:10;11.60;99.90
44487;DHT22;30191;50.908;6.962;2023-03-21T04:47:36;11.60;99.90
44487;DHT22;30191;50.908;6.962;2023-03-21T04:50:02;11.60;99.90
44487;DHT22;30191;50.908;6.962;2023-03-21T04:52:27;11.60;99.90
44487;DHT22;30191;50.908;6.962;2023-03-21T04:54:53;11.60;99.90
44487;DHT22;30191;50.908;6.962;2023-03-21T04:57:19;11.60;99.90
44487;DHT22;30191;50.908;6.962;2023-03-21T04:59:44;11.60;99.90
44487;DHT22;30191;50.908;6.962;2023-03-21T05:02:10;11.60;99.90
44487;DHT22;30191;50.908;6.962;2023-03-21T05:04:36;11.60;99.90
44487;DHT22;30191;50.908;6.962;2023-03-21T05:07:02;11.60;99.90
44487;DHT22;30191;50.908;6.962;2023-03-21T05:09:27;11.70;99.90
44487;DHT22;30191;50.908;6.962;2023-03-21T05:11:53;11.70;99.90
44487;DHT22;30191;50.908;6.962;2023-03-21T05:14:20;11.60;99.90
44487;DHT22;30191;50.908;6.962;2023-03-21T05:16:46;11.70;99.90
44487;DHT22;30191;50.908;6.962;2023-03-21T05:19:19;11.60;99.90
44487;DHT22;30191;50.908;6.962;2023-03-21T05:21:47;11.70;99.90
44487;DHT22;30191;50.908;6.962;2023-03-21T05:24:14;11.60;99.90
44487;DHT22;30191;50.908;6.962;2023-03-21T05:26:40;11.60;99.90
44487;DHT22;30191;50.908;6.962;2023-03-21T05:29:06;11.60;99.90
44487;DHT22;30191;50.908;6.962;2023-03-21T05:31:32;11.60;99.90
44487;DHT22;30191;50.908;6.962;2023-03-21T05:33:57;11.60;99.90
44487;DHT22;30191;50.908;6.962;2023-03-21T05:36:23;11.60;99.90
44487;DHT22;30191;50.908;6.962;2023-03-21T05:38:49;11.60;99.90
44487;DHT22;30191;50.908;6.962;2023-03-21T05:41:16;11.60;99.90
44487;DHT22;30191;50.908;6.962;2023-03-21T05:43:42;11.60;99.90
44487;DHT22;30191;50.908;6.962;2023-03-21T05:46:07;11.60;99.90
44487;DHT22;30191;50.908;6.962;2023-03-21T05:48:33;11.70;99.90
44487;DHT22;30191;50.908;6.962;2023-03-21T05:50:59;11.70;99.90
44487;DHT22;30191;50.908;6.962;2023-03-21T05:53:25;11.70;99.90
44487;DHT22;30191;50.908;6.962;2023-03-21T05:55:51;11.70;99.90
44487;DHT22;30191;50.908;6.962;2023-03-21T05:58:16;11.70;99.90
44487;DHT22;30191;50.908;6.962;2023-03-21T06:00:42;11.70;99.90
44487;DHT22;30191;50.908;6.962;2023-03-21T06:03:07;11.70;99.90
44487;DHT22;30191;50.908;6.962;2023-03-21T06:05:33;11.70;99.90
44487;DHT22;30191;50.908;6.962;2023-03-21T06:07:58;11.70;99.90
44487;DHT22;30191;50.908;6.962;2023-03-21T06:10:24;11.70;99.90
44487;DHT22;30191;50.908;6.962;2023-03-21T06:12:50;11.70;99.90
44487;DHT22;30191;50.908;6.962;2023-03-21T06:15:15;11.70;99.90
44487;DHT22;30191;50.908;6.962;2023-03-21T06:17:41;11.70;99.90
44487;DHT22;30191;50.908;6.962;2023-03-21T06:20:06;11.70;99.90
44487;DHT22;30191;50.908;6.962;2023-03-21T06:22:33;11.70;99.90
44487;DHT22;30191;50.908;6.962;2023-03-21T06:24:58;11.70;99.90
44487;DHT22;30191;50.908;6.962;2023-03-21T06:27:24;11.70;99.90
44487;DHT22;30191;50.908;6.962;2023-03-21T06:29:49;11.70;99.90
44487;DHT22;30191;50.908;6.962;2023-03-21T06:32:15;11.70;99.90
44487;DHT22;30191;50.908;6.962;2023-03-21T06:34:41;11.70;99.90
44487;DHT22;30191;50.908;6.962;2023-03-21T06:37:06;11.80;99.90
44487;DHT22;30191;50.908;6.962;2023-03-21T06:39:32;11.80;99.90
44487;DHT22;30191;50.908;6.962;2023-03-21T06:41:58;11.70;99.90
44487;DHT22;30191;50.908;6.962;2023-03-21T06:44:23;11.70;99.90
44487;DHT22;30191;50.908;6.962;2023-03-21T06:46:49;11.70;99.90
44487;DHT22;30191;50.908;6.962;2023-03-21T06:49:15;11.80;99.90
44487;DHT22;30191;50.908;6.962;2023-03-21T06:51:41;11.80;99.90
44487;DHT22;30191;50.908;6.962;2023-03-21T06:54:07;11.70;99.90
44487;DHT22;30191;50.908;6.962;2023-03-21T06:56:32;11.70;99.90
44487;DHT22;30191;50.908;6.962;2023-03-21T06:58:58;11.70;99.90
44487;DHT22;30191;50.908;6.962;2023-03-21T07:01:23;11.70;99.90
44487;DHT22;30191;50.908;6.962;2023-03-21T07:03:52;11.70;99.90
44487;DHT22;30191;50.908;6.962;2023-03-21T07:06:17;11.70;99.90
44487;DHT22;30191;50.908;6.962;2023-03-21T07:08:43;11.70;99.90
44487;DHT22;30191;50.908;6.962;2023-03-21T07:11:09;11.70;99.90
44487;DHT22;30191;50.908;6.962;2023-03-21T07:13:34;11.70;99.90
44487;DHT22;30191;50.908;6.962;2023-03-21T07:16:00;11.70;99.90
44487;DHT22;30191;50.908;6.962;2023-03-21T07:18:26;11.70;99.90
44487;DHT22;30191;50.908;6.962;2023-03-21T07:20:51;11.70;99.90
44487;DHT22;30191;50.908;6.962;2023-03-21T07:23:18;11.70;99.90
44487;DHT22;30191;50.908;6.962;2023-03-21T07:25:43;11.70;99.90
44487;DHT22;30191;50.908;6.962;2023-03-21T07:28:09;11.70;99.90
44487;DHT22;30191;50.908;6.962;2023-03-21T07:30:34;11.70;99.90
44487;DHT22;30191;50.908;6.962;2023-03-21T07:33:01;11.70;99.90
44487;DHT22;30191;50.908;6.962;2023-03-21T07:35:26;11.60;99.90
44487;DHT22;30191;50.908;6.962;2023-03-21T07:37:52;11.60;99.90
44487;DHT22;30191;50.908;6.962;2023-03-21T07:40:18;11.60;99.90
44487;DHT22;30191;50.908;6.962;2023-03-21T07:42:43;11.70;99.90
44487;DHT22;30191;50.908;6.962;2023-03-21T07:45:09;11.70;99.90
44487;DHT22;30191;50.908;6.962;2023-03-21T07:47:35;11.70;99.90
44487;DHT22;30191;50.908;6.962;2023-03-21T07:50:00;11.60;99.90
44487;DHT22;30191;50.908;6.962;2023-03-21T07:52:27;11.70;99.90
44487;DHT22;30191;50.908;6.962;2023-03-21T07:54:53;11.70;99.90
44487;DHT22;30191;50.908;6.962;2023-03-21T07:57:18;11.60;99.90
44487;DHT22;30191;50.908;6.962;2023-03-21T07:59:44;11.70;99.90
44487;DHT22;30191;50.908;6.962;2023-03-21T08:02:16;11.70;99.90
44487;DHT22;30191;50.908;6.962;2023-03-21T08:04:42;11.70;99.90
44487;DHT22;30191;50.908;6.962;2023-03-21T08:07:07;11.70;99.90
44487;DHT22;30191;50.908;6.962;2023-03-21T08:09:33;11.70;99.90
44487;DHT22;30191;50.908;6.962;2023-03-21T08:11:59;11.70;99.90
44487;DHT22;30191;50.908;6.962;2023-03-21T08:14:24;11.70;99.90
44487;DHT22;30191;50.908;6.962;2023-03-21T08:16:50;11.70;99.90
44487;DHT22;30191;50.908;6.962;2023-03-21T08:19:15;11.70;99.90
44487;DHT22;30191;50.908;6.962;2023-03-21T08:21:43;11.80;99.90
44487;DHT22;30191;50.908;6.962;2023-03-21T08:24:08;11.80;99.90
44487;DHT22;30191;50.908;6.962;2023-03-21T08:26:34;11.80;99.90
44487;DHT22;30191;50.908;6.962;2023-03-21T08:28:59;11.90;99.90
44487;DHT22;30191;50.908;6.962;2023-03-21T08:31:25;11.90;99.90
44487;DHT22;30191;50.908;6.962;2023-03-21T08:33:50;11.90;99.90
44487;DHT22;30191;50.908;6.962;2023-03-21T08:36:19;11.90;99.90
44487;DHT22;30191;50.908;6.962;2023-03-21T08:38:45;11.90;99.90
44487;DHT22;30191;50.908;6.962;2023-03-21T08:41:14;12.00;99.90
44487;DHT22;30191;50.908;6.962;2023-03-21T08:43:40;12.00;99.90
44487;DHT22;30191;50.908;6.962;2023-03-21T08:46:06;11.90;99.90
44487;DHT22;30191;50.908;6.962;2023-03-21T08:48:31;12.00;99.90
44487;DHT22;30191;50.908;6.962;2023-03-21T08:51:00;12.00;99.90
44487;DHT22;30191;50.908;6.962;2023-03-21T08:53:25;12.00;99.90
44487;DHT22;30191;50.908;6.962;2023-03-21T08:55:51;12.00;99.90
44487;DHT22;30191;50.908;6.962;2023-03-21T08:58:17;12.00;99.90
44487;DHT22;30191;50.908;6.962;2023-03-21T09:00:42;11.90;99.90
44487;DHT22;30191;50.908;6.962;2023-03-21T09:03:08;12.00;99.90
44487;DHT22;30191;50.908;6.962;2023-03-21T09:05:33;12.00;99.90
44487;DHT22;30191;50.908;6.962;2023-03-21T09:08:00;12.00;99.90
44487;DHT22;30191;50.908;6.962;2023-03-21T09:10:28;12.00;99.90
44487;DHT22;30191;50.908;6.962;2023-03-21T09:12:54;12.10;99.90
44487;DHT22;30191;50.908;6.962;2023-03-21T09:15:20;12.10;99.90
44487;DHT22;30191;50.908;6.962;2023-03-21T09:17:48;12.10;99.90
44487;DHT22;30191;50.908;6.962;2023-03-21T09:20:17;12.20;99.90
44487;DHT22;30191;50.908;6.962;2023-03-21T09:22:45;12.20;99.90
44487;DHT22;30191;50.908;6.962;2023-03-21T09:25:12;12.20;99.90
44487;DHT22;30191;50.908;6.962;2023-03-21T09:27:38;12.30;99.90
44487;DHT22;30191;50.908;6.962;2023-03-21T09:30:04;12.30;99.90
44487;DHT22;30191;50.908;6.962;2023-03-21T09:32:31;12.40;99.90
44487;DHT22;30191;50.908;6.962;2023-03-21T09:34:58;12.50;99.90
44487;DHT22;30191;50.908;6.962;2023-03-21T09:37:23;12.50;99.90
44487;DHT22;30191;50.908;6.962;2023-03-21T09:39:49;12.50;99.90
44487;DHT22;30191;50.908;6.962;2023-03-21T09:47:36;12.40;99.90
44487;DHT22;30191;50.908;6.962;2023-03-21T09:50:06;12.30;99.90
44487;DHT22;30191;50.908;6.962;2023-03-21T09:55:02;12.30;99.90
44487;DHT22;30191;50.908;6.962;2023-03-21T09:57:30;12.30;99.90
44487;DHT22;30191;50.908;6.962;2023-03-21T09:59:58;12.30;99.90
44487;DHT22;30191;50.908;6.962;2023-03-21T10:05:00;12.40;99.90
44487;DHT22;30191;50.908;6.962;2023-03-21T10:07:27;12.40;99.90
44487;DHT22;30191;50.908;6.962;2023-03-21T10:09:55;12.30;99.90
44487;DHT22;30191;50.908;6.962;2023-03-21T10:12:22;12.30;99.90
44487;DHT22;30191;50.908;6.962;2023-03-21T10:14:53;12.30;99.90
44487;DHT22;30191;50.908;6.962;2023-03-21T10:17:28;12.30;99.90
44487;DHT22;30191;50.908;6.962;2023-03-21T10:20:13;12.30;99.90
44487;DHT22;30191;50.908;6.962;2023-03-21T10:22:39;12.20;99.90
44487;DHT22;30191;50.908;6.962;2023-03-21T10:25:05;12.20;99.90
44487;DHT22;30191;50.908;6.962;2023-03-21T10:27:31;12.20;99.90
44487;DHT22;30191;50.908;6.962;2023-03-21T10:29:57;12.20;99.90
44487;DHT22;30191;50.908;6.962;2023-03-21T10:32:25;12.20;99.90
44487;DHT22;30191;50.908;6.962;2023-03-21T10:34:54;12.20;99.90
44487;DHT22;30191;50.908;6.962;2023-03-21T10:37:20;12.20;99.90
44487;DHT22;30191;50.908;6.962;2023-03-21T10:39:50;12.30;99.90
44487;DHT22;30191;50.908;6.962;2023-03-21T10:42:17;12.30;99.90
44487;DHT22;30191;50.908;6.962;2023-03-21T10:44:45;12.40;99.90
44487;DHT22;30191;50.908;6.962;2023-03-21T10:47:11;12.40;99.90
44487;DHT22;30191;50.908;6.962;2023-03-21T10:49:43;12.40;99.90
44487;DHT22;30191;50.908;6.962;2023-03-21T10:52:10;12.50;99.90
44487;DHT22;30191;50.908;6.962;2023-03-21T10:54:38;12.70;99.90
44487;DHT22;30191;50.908;6.962;2023-03-21T10:57:14;12.80;99.90
44487;DHT22;30191;50.908;6.962;2023-03-21T10:59:42;12.90;99.90
44487;DHT22;30191;50.908;6.962;2023-03-21T11:02:25;12.90;99.90
44487;DHT22;30191;50.908;6.962;2023-03-21T11:04:52;12.90;99.90
44487;DHT22;30191;50.908;6.962;2023-03-21T11:07:19;12.80;99.90
44487;DHT22;30191;50.908;6.962;2023-03-21T11:09:55;12.80;99.90
44487;DHT22;30191;50.908;6.962;2023-03-21T11:12:34;12.70;99.90
44487;DHT22;30191;50.908;6.962;2023-03-21T11:17:48;12.60;99.90
44487;DHT22;30191;50.908;6.962;2023-03-21T11:20:16;12.60;99.90
44487;DHT22;30191;50.908;6.962;2023-03-21T11:22:43;12.60;99.90
44487;DHT22;30191;50.908;6.962;2023-03-21T11:25:18;12.60;99.90
44487;DHT22;30191;50.908;6.962;2023-03-21T11:27:52;12.60;99.90
44487;DHT22;30191;50.908;6.962;2023-03-21T11:30:22;12.50;99.90
44487;DHT22;30191;50.908;6.962;2023-03-21T11:32:58;12.50;99.90
44487;DHT22;30191;50.908;6.962;2023-03-21T11:35:32;12.40;99.90
44487;DHT22;30191;50.908;6.962;2023-03-21T11:37:57;12.40;99.90
44487;DHT22;30191;50.908;6.962;2023-03-21T11:40:24;12.40;99.90
44487;DHT22;30191;50.908;6.962;2023-03-21T11:42:54;12.40;99.90
44487;DHT22;30191;50.908;6.962;2023-03-21T11:45:21;12.40;99.90
44487;DHT22;30191;50.908;6.962;2023-03-21T11:47:48;12.40;99.90
44487;DHT22;30191;50.908;6.962;2023-03-21T11:50:15;12.40;99.90
44487;DHT22;30191;50.908;6.962;2023-03-21T11:52:50;12.40;99.90
44487;DHT22;30191;50.908;6.962;2023-03-21T11:55:38;12.40;99.90
44487;DHT22;30191;50.908;6.962;2023-03-21T12:00:53;12.40;99.90
44487;DHT22;30191;50.908;6.962;2023-03-21T12:05:58;12.40;99.90
44487;DHT22;30191;50.908;6.962;2023-03-21T12:08:43;12.50;99.90
44487;DHT22;30191;50.908;6.962;2023-03-21T12:18:42;12.50;99.90
44487;DHT22;30191;50.908;6.962;2023-03-21T12:21:15;12.50;99.90
44487;DHT22;30191;50.908;6.962;2023-03-21T12:29:12;12.50;99.90
44487;DHT22;30191;50.908;6.962;2023-03-21T12:34:48;12.50;99.90
44487;DHT22;30191;50.908;6.962;2023-03-21T12:39:40;12.60;99.90
44487;DHT22;30191;50.908;6.962;2023-03-21T12:42:21;12.60;99.90
44487;DHT22;30191;50.908;6.962;2023-03-21T12:44:51;12.60;99.90
44487;DHT22;30191;50.908;6.962;2023-03-21T12:47:20;12.70;99.90
44487;DHT22;30191;50.908;6.962;2023-03-21T12:52:24;12.80;99.90
44487;DHT22;30191;50.908;6.962;2023-03-21T12:55:02;12.80;99.90
44487;DHT22;30191;50.908;6.962;2023-03-21T13:04:55;13.10;99.90
44487;DHT22;30191;50.908;6.962;2023-03-21T13:07:22;13.10;99.90
44487;DHT22;30191;50.908;6.962;2023-03-21T13:09:49;13.10;99.90
44487;DHT22;30191;50.908;6.962;2023-03-21T13:12:27;13.10;99.90
44487;DHT22;30191;50.908;6.962;2023-03-21T13:15:05;13.10;99.90
44487;DHT22;30191;50.908;6.962;2023-03-21T13:18:09;13.20;99.90
44487;DHT22;30191;50.908;6.962;2023-03-21T13:20:25;13.10;99.90
44487;DHT22;30191;50.908;6.962;2023-03-21T13:22:54;13.20;99.90
44487;DHT22;30191;50.908;6.962;2023-03-21T13:25:21;13.20;99.90
44487;DHT22;30191;50.908;6.962;2023-03-21T13:27:50;13.20;99.90
44487;DHT22;30191;50.908;6.962;2023-03-21T13:32:47;13.20;99.90
44487;DHT22;30191;50.908;6.962;2023-03-21T13:35:15;13.20;99.90
44487;DHT22;30191;50.908;6.962;2023-03-21T13:37:51;13.10;99.90
44487;DHT22;30191;50.908;6.962;2023-03-21T13:40:21;13.10;99.90
44487;DHT22;30191;50.908;6.962;2023-03-21T13:42:50;13.10;99.90
44487;DHT22;30191;50.908;6.962;2023-03-21T13:45:32;13.10;99.90
44487;DHT22;30191;50.908;6.962;2023-03-21T13:47:59;13.10;99.90
44487;DHT22;30191;50.908;6.962;2023-03-21T13:50:29;13.10;99.90
44487;DHT22;30191;50.908;6.962;2023-03-21T13:53:10;13.10;99.90
44487;DHT22;30191;50.908;6.962;2023-03-21T13:55:43;13.20;99.90
44487;DHT22;30191;50.908;6.962;2023-03-21T14:03:38;13.50;99.90
44487;DHT22;30191;50.908;6.962;2023-03-21T14:06:04;13.50;99.90
44487;DHT22;30191;50.908;6.962;2023-03-21T14:08:30;13.60;99.90
44487;DHT22;30191;50.908;6.962;2023-03-21T14:10:57;13.70;99.90
44487;DHT22;30191;50.908;6.962;2023-03-21T14:13:25;13.90;99.90
44487;DHT22;30191;50.908;6.962;2023-03-21T14:15:51;14.00;99.90
44487;DHT22;30191;50.908;6.962;2023-03-21T14:18:21;14.20;99.90
44487;DHT22;30191;50.908;6.962;2023-03-21T14:20:54;14.10;99.90
44487;DHT22;30191;50.908;6.962;2023-03-21T14:23:20;14.10;99.90
44487;DHT22;30191;50.908;6.962;2023-03-21T14:25:46;13.90;99.90
44487;DHT22;30191;50.908;6.962;2023-03-21T14:30:39;13.70;99.90
44487;DHT22;30191;50.908;6.962;2023-03-21T14:33:07;13.70;99.90
44487;DHT22;30191;50.908;6.962;2023-03-21T14:35:36;13.70;99.90
44487;DHT22;30191;50.908;6.962;2023-03-21T14:38:05;13.80;99.90
44487;DHT22;30191;50.908;6.962;2023-03-21T14:40:33;13.70;99.90
44487;DHT22;30191;50.908;6.962;2023-03-21T14:43:02;13.70;99.90
44487;DHT22;30191;50.908;6.962;2023-03-21T14:45:29;13.80;99.90
44487;DHT22;30191;50.908;6.962;2023-03-21T14:50:28;14.10;99.90
44487;DHT22;30191;50.908;6.962;2023-03-21T14:52:55;14.10;99.90
44487;DHT22;30191;50.908;6.962;2023-03-21T14:55:22;14.20;99.90
44487;DHT22;30191;50.908;6.962;2023-03-21T14:57:48;14.30;99.90
44487;DHT22;30191;50.908;6.962;2023-03-21T15:00:16;14.50;99.90
44487;DHT22;30191;50.908;6.962;2023-03-21T15:02:45;14.90;99.90
44487;DHT22;30191;50.908;6.962;2023-03-21T15:05:32;15.10;99.90
44487;DHT22;30191;50.908;6.962;2023-03-21T15:07:57;15.20;99.90
44487;DHT22;30191;50.908;6.962;2023-03-21T15:10:23;15.60;99.90
44487;DHT22;30191;50.908;6.962;2023-03-21T15:12:54;15.80;99.90
44487;DHT22;30191;50.908;6.962;2023-03-21T15:15:20;16.20;99.90
44487;DHT22;30191;50.908;6.962;2023-03-21T15:17:47;16.50;99.90
44487;DHT22;30191;50.908;6.962;2023-03-21T15:20:14;16.60;99.90
44487;DHT22;30191;50.908;6.962;2023-03-21T15:22:41;16.50;99.90
44487;DHT22;30191;50.908;6.962;2023-03-21T15:25:08;16.40;99.90
44487;DHT22;30191;50.908;6.962;2023-03-21T15:27:38;16.70;99.90
44487;DHT22;30191;50.908;6.962;2023-03-21T15:30:05;17.10;99.90
44487;DHT22;30191;50.908;6.962;2023-03-21T15:32:31;17.40;99.90
44487;DHT22;30191;50.908;6.962;2023-03-21T15:35:04;17.50;99.90
44487;DHT22;30191;50.908;6.962;2023-03-21T15:37:32;17.10;99.90
44487;DHT22;30191;50.908;6.962;2023-03-21T15:42:42;16.40;99.90
44487;DHT22;30191;50.908;6.962;2023-03-21T15:45:19;16.40;99.90
44487;DHT22;30191;50.908;6.962;2023-03-21T15:52:49;17.20;99.90
44487;DHT22;30191;50.908;6.962;2023-03-21T15:55:16;17.50;99.90
44487;DHT22;30191;50.908;6.962;2023-03-21T15:57:42;17.60;99.90
44487;DHT22;30191;50.908;6.962;2023-03-21T16:02:45;17.30;99.90
44487;DHT22;30191;50.908;6.962;2023-03-21T16:07:43;16.90;99.90
44487;DHT22;30191;50.908;6.962;2023-03-21T16:10:27;16.70;99.90
44487;DHT22;30191;50.908;6.962;2023-03-21T16:12:53;16.50;99.90
44487;DHT22;30191;50.908;6.962;2023-03-21T16:15:18;16.40;99.90
44487;DHT22;30191;50.908;6.962;2023-03-21T16:17:47;16.30;99.90
44487;DHT22;30191;50.908;6.962;2023-03-21T16:20:49;16.40;99.90
44487;DHT22;30191;50.908;6.962;2023-03-21T16:23:11;16.40;99.90
44487;DHT22;30191;50.908;6.962;2023-03-21T16:25:37;16.60;99.90
44487;DHT22;30191;50.908;6.962;2023-03-21T16:28:03;16.80;99.90
44487;DHT22;30191;50.908;6.962;2023-03-21T16:30:28;16.90;99.90
44487;DHT22;30191;50.908;6.962;2023-03-21T16:32:55;16.80;99.90
44487;DHT22;30191;50.908;6.962;2023-03-21T16:35:20;16.70;99.90
44487;DHT22;30191;50.908;6.962;2023-03-21T16:37:46;16.50;99.90
44487;DHT22;30191;50.908;6.962;2023-03-21T16:40:25;16.30;99.90
44487;DHT22;30191;50.908;6.962;2023-03-21T16:42:52;16.10;99.90
44487;DHT22;30191;50.908;6.962;2023-03-21T16:45:17;15.90;99.90
44487;DHT22;30191;50.908;6.962;2023-03-21T16:47:43;15.80;99.90
44487;DHT22;30191;50.908;6.962;2023-03-21T16:50:20;15.60;99.90
44487;DHT22;30191;50.908;6.962;2023-03-21T16:52:46;15.60;99.90
44487;DHT22;30191;50.908;6.962;2023-03-21T16:55:11;15.50;99.90
44487;DHT22;30191;50.908;6.962;2023-03-21T16:57:37;15.40;99.90
44487;DHT22;30191;50.908;6.962;2023-03-21T17:00:04;15.30;99.90
44487;DHT22;30191;50.908;6.962;2023-03-21T17:02:35;15.30;99.90
44487;DHT22;30191;50.908;6.962;2023-03-21T17:05:01;15.20;99.90
44487;DHT22;30191;50.908;6.962;2023-03-21T17:07:28;15.10;99.90
44487;DHT22;30191;50.908;6.962;2023-03-21T17:09:53;15.00;99.90
44487;DHT22;30191;50.908;6.962;2023-03-21T17:12:19;15.00;99.90
44487;DHT22;30191;50.908;6.962;2023-03-21T17:14:45;14.90;99.90
44487;DHT22;30191;50.908;6.962;2023-03-21T17:17:11;14.90;99.90
44487;DHT22;30191;50.908;6.962;2023-03-21T17:19:37;14.80;99.90